createdAt,value
2023-06-09T00:02:11.466Z,1.60
2023-06-09T00:04:38.909Z,1.60
2023-06-09T00:07:07.093Z,1.85
2023-06-09T00:09:34.370Z,1.40
2023-06-09T00:12:01.550Z,1.80
2023-06-09T00:16:56.894Z,2.17
2023-06-09T00:19:25.786Z,1.95
2023-06-09T00:21:53.291Z,2.17
2023-06-09T00:24:21.779Z,2.15
2023-06-09T00:26:53.276Z,1.80
2023-06-09T00:29:25.528Z,1.90
2023-06-09T00:31:52.806Z,1.83
2023-06-09T00:34:20.097Z,1.90
2023-06-09T00:36:47.587Z,2.28
2023-06-09T00:39:14.772Z,1.75
2023-06-09T00:41:43.314Z,2.00
2023-06-09T00:44:10.739Z,1.60
2023-06-09T00:46:38.257Z,1.75
2023-06-09T00:49:06.287Z,1.73
2023-06-09T00:51:36.601Z,1.63
2023-06-09T00:54:05.024Z,1.48
2023-06-09T00:56:34.106Z,1.92
2023-06-09T00:59:01.696Z,2.42
2023-06-09T01:01:30.440Z,1.80
2023-06-09T01:03:59.717Z,2.05
2023-06-09T01:06:52.457Z,1.67
2023-06-09T01:09:36.846Z,1.58
2023-06-09T01:12:19.057Z,2.28
2023-06-09T01:14:48.709Z,2.15
2023-06-09T01:17:19.991Z,2.20
2023-06-09T01:19:49.961Z,2.40
2023-06-09T01:22:28.917Z,2.45
2023-06-09T01:25:47.427Z,2.35
2023-06-09T01:28:21.656Z,2.42
2023-06-09T01:30:53.154Z,2.58
2023-06-09T01:33:25.674Z,3.03
2023-06-09T01:35:54.827Z,2.05
2023-06-09T01:38:23.895Z,2.03
2023-06-09T01:40:51.365Z,2.22
2023-06-09T01:43:18.881Z,2.50
2023-06-09T01:45:46.154Z,2.83
2023-06-09T01:48:44.569Z,2.47
2023-06-09T01:51:28.067Z,2.20
2023-06-09T01:54:06.307Z,2.47
2023-06-09T01:56:41.879Z,2.30
2023-06-09T01:59:12.768Z,2.58
2023-06-09T02:01:41.150Z,2.80
2023-06-09T02:04:11.084Z,2.88
2023-06-09T02:06:38.658Z,2.20
2023-06-09T02:09:06.146Z,2.53
2023-06-09T02:11:33.334Z,2.60
2023-06-09T02:16:27.620Z,2.70
2023-06-09T02:18:55.445Z,2.30
2023-06-09T02:21:22.924Z,2.72
2023-06-09T02:23:50.198Z,2.40
2023-06-09T02:26:17.824Z,2.85
2023-06-09T02:28:45.041Z,2.45
2023-06-09T02:33:39.412Z,2.22
2023-06-09T02:38:33.879Z,2.53
2023-06-09T02:41:01.054Z,2.90
2023-06-09T02:45:55.389Z,2.17
2023-06-09T02:48:22.737Z,2.40
2023-06-09T02:50:49.925Z,2.38
2023-06-09T02:53:17.422Z,3.00
2023-06-09T02:55:47.332Z,2.88
2023-06-09T02:58:15.887Z,2.92
2023-06-09T03:00:46.249Z,2.58
2023-06-09T03:03:14.628Z,3.10
2023-06-09T03:05:45.777Z,2.70
2023-06-09T03:08:13.207Z,3.03
2023-06-09T03:10:40.388Z,2.78
2023-06-09T03:13:07.767Z,3.40
2023-06-09T03:15:35.061Z,2.85
2023-06-09T03:18:02.462Z,2.15
2023-06-09T03:20:30.426Z,2.00
2023-06-09T03:22:59.462Z,2.35
2023-06-09T03:25:27.217Z,2.53
2023-06-09T03:27:54.929Z,2.53
2023-06-09T03:30:22.074Z,2.22
2023-06-09T03:35:16.935Z,2.40
2023-06-09T03:37:44.119Z,2.00
2023-06-09T03:42:38.762Z,2.70
2023-06-09T03:47:33.304Z,2.45
2023-06-09T03:50:00.628Z,2.65
2023-06-09T03:54:55.515Z,2.72
2023-06-09T03:57:22.950Z,2.58
2023-06-09T03:59:50.207Z,2.97
2023-06-09T04:02:17.541Z,3.08
2023-06-09T04:04:46.079Z,3.22
2023-06-09T04:07:16.016Z,2.58
2023-06-09T04:09:43.285Z,2.83
2023-06-09T04:12:11.440Z,2.40
2023-06-09T04:14:38.653Z,2.70
2023-06-09T04:19:33.408Z,2.78
2023-06-09T04:22:06.814Z,2.70
2023-06-09T04:24:34.127Z,2.90
2023-06-09T04:27:03.850Z,2.85
2023-06-09T04:29:35.063Z,2.95
2023-06-09T04:32:03.544Z,2.50
2023-06-09T04:34:39.728Z,3.35
2023-06-09T04:37:10.780Z,3.17
2023-06-09T04:39:38.031Z,3.53
2023-06-09T04:42:05.691Z,3.58
2023-06-09T04:44:34.264Z,4.57
2023-06-09T04:47:04.752Z,4.60
2023-06-09T04:49:32.693Z,4.97
2023-06-09T04:52:00.645Z,5.47
2023-06-09T04:54:30.159Z,5.43
2023-06-09T04:57:01.577Z,5.75
2023-06-09T04:59:31.543Z,7.60
2023-06-09T05:01:59.221Z,8.65
2023-06-09T05:04:27.845Z,7.47
2023-06-09T05:06:55.048Z,8.20
2023-06-09T05:11:49.761Z,6.25
2023-06-09T05:14:16.956Z,7.80
2023-06-09T05:19:14.734Z,7.85
2023-06-09T05:21:42.348Z,6.95
2023-06-09T05:24:09.528Z,7.35
2023-06-09T05:26:37.261Z,7.15
2023-06-09T05:29:04.635Z,7.35
2023-06-09T05:31:33.579Z,7.20
2023-06-09T05:34:01.098Z,5.78
2023-06-09T05:36:28.422Z,5.15
2023-06-09T05:38:56.022Z,5.43
2023-06-09T05:41:23.244Z,6.03
2023-06-09T05:43:50.500Z,5.05
2023-06-09T05:46:17.907Z,5.20
2023-06-09T05:48:45.165Z,5.25
2023-06-09T05:51:12.375Z,5.45
2023-06-09T05:53:40.159Z,6.05
2023-06-09T05:56:07.458Z,5.88
2023-06-09T05:58:35.119Z,6.00
2023-06-09T06:01:04.731Z,6.75
2023-06-09T06:03:33.346Z,6.93
2023-06-09T06:06:00.680Z,7.05
2023-06-09T06:08:28.077Z,6.45
2023-06-09T06:10:55.333Z,8.52
2023-06-09T06:13:22.854Z,9.35
2023-06-09T06:15:50.237Z,9.07
2023-06-09T06:18:18.246Z,8.98
2023-06-09T06:20:45.560Z,9.25
2023-06-09T06:23:13.037Z,7.60
2023-06-09T06:25:42.858Z,6.15
2023-06-09T06:28:11.947Z,7.00
2023-06-09T06:30:39.263Z,7.28
2023-06-09T06:33:09.133Z,7.00
2023-06-09T06:35:36.720Z,6.45
2023-06-09T06:38:04.065Z,7.85
2023-06-09T06:40:31.557Z,8.57
2023-06-09T06:42:59.006Z,7.05
2023-06-09T06:45:27.927Z,7.72
2023-06-09T06:47:55.878Z,7.90
2023-06-09T06:50:25.727Z,7.53
2023-06-09T06:52:53.838Z,6.15
2023-06-09T06:55:21.160Z,5.70
2023-06-09T06:57:48.457Z,5.03
2023-06-09T07:00:16.642Z,5.07
2023-06-09T07:02:48.335Z,4.65
2023-06-09T07:05:17.600Z,4.32
2023-06-09T07:07:48.673Z,4.38
2023-06-09T07:10:16.687Z,4.00
2023-06-09T07:12:43.964Z,3.30
2023-06-09T07:15:11.748Z,3.60
2023-06-09T07:17:39.095Z,2.95
2023-06-09T07:20:07.484Z,3.10
2023-06-09T07:22:35.527Z,2.95
2023-06-09T07:25:03.031Z,3.67
2023-06-09T07:27:30.352Z,4.05
2023-06-09T07:29:57.662Z,3.92
2023-06-09T07:32:24.972Z,4.20
2023-06-09T07:34:52.438Z,4.75
2023-06-09T07:37:19.721Z,5.22
2023-06-09T07:39:47.184Z,5.65
2023-06-09T07:42:14.565Z,5.22
2023-06-09T07:44:41.832Z,5.57
2023-06-09T07:47:09.352Z,4.93
2023-06-09T07:49:37.922Z,5.30
2023-06-09T07:52:20.474Z,5.10
2023-06-09T07:54:51.467Z,5.45
2023-06-09T07:57:19.696Z,5.05
2023-06-09T07:59:47.380Z,4.78
2023-06-09T08:02:15.190Z,5.07
2023-06-09T08:04:43.598Z,4.43
2023-06-09T08:07:12.530Z,4.50
2023-06-09T08:09:42.068Z,4.40
2023-06-09T08:12:10.149Z,4.35
2023-06-09T08:14:38.168Z,4.40
2023-06-09T08:17:06.232Z,4.13
2023-06-09T08:19:34.177Z,4.68
2023-06-09T08:22:02.715Z,4.10
2023-06-09T08:24:30.548Z,4.97
2023-06-09T08:26:59.940Z,3.85
2023-06-09T08:29:27.877Z,4.25
2023-06-09T08:31:55.717Z,4.57
2023-06-09T08:34:23.937Z,5.07
2023-06-09T08:36:51.551Z,3.53
2023-06-09T08:39:19.031Z,3.20
2023-06-09T08:41:52.613Z,3.13
2023-06-09T08:44:22.803Z,3.45
2023-06-09T08:46:51.615Z,3.75
2023-06-09T08:49:20.242Z,3.90
2023-06-09T08:51:50.534Z,3.42
2023-06-09T08:54:19.374Z,3.63
2023-06-09T08:56:49.400Z,3.75
2023-06-09T08:59:18.025Z,3.38
2023-06-09T09:01:49.380Z,3.13
2023-06-09T09:04:18.021Z,3.15
2023-06-09T09:06:48.199Z,2.83
2023-06-09T09:09:17.930Z,2.40
2023-06-09T09:11:47.083Z,2.42
2023-06-09T09:14:16.463Z,2.60
2023-06-09T09:16:44.215Z,3.00
2023-06-09T09:19:12.252Z,3.20
2023-06-09T09:21:40.367Z,2.30
2023-06-09T09:24:09.140Z,2.30
2023-06-09T09:26:37.423Z,2.30
2023-06-09T09:29:08.802Z,2.08
2023-06-09T09:31:40.849Z,2.10
2023-06-09T09:34:16.784Z,2.00
2023-06-09T09:36:46.922Z,1.63
2023-06-09T09:39:16.816Z,1.83
2023-06-09T09:42:05.066Z,1.92
2023-06-09T09:44:51.653Z,1.98
2023-06-09T09:47:20.975Z,1.60
2023-06-09T09:49:55.270Z,1.92
2023-06-09T09:52:27.456Z,1.83
2023-06-09T09:54:57.753Z,2.20
2023-06-09T09:57:45.248Z,1.83
2023-06-09T10:00:14.663Z,1.35
2023-06-09T10:02:45.847Z,1.60
2023-06-09T10:05:17.734Z,1.98
2023-06-09T10:07:49.984Z,1.77
2023-06-09T10:10:19.049Z,1.58
2023-06-09T10:12:47.506Z,1.65
2023-06-09T10:15:16.305Z,1.80
2023-06-09T10:17:45.722Z,1.75
2023-06-09T10:20:22.976Z,2.00
2023-06-09T10:22:51.073Z,2.40
2023-06-09T10:25:19.562Z,1.98
2023-06-09T10:27:51.232Z,1.70
2023-06-09T10:30:20.585Z,1.67
2023-06-09T10:32:56.722Z,1.83
2023-06-09T10:35:29.469Z,1.60
2023-06-09T10:37:59.919Z,1.83
2023-06-09T10:40:45.218Z,1.48
2023-06-09T10:43:26.929Z,1.60
2023-06-09T10:45:56.563Z,2.03
2023-06-09T10:48:44.333Z,1.75
2023-06-09T10:51:44.294Z,2.03
2023-06-09T10:54:33.931Z,2.13
2023-06-09T10:57:07.416Z,2.38
2023-06-09T10:59:55.878Z,2.20
2023-06-09T11:02:26.036Z,2.17
2023-06-09T11:04:56.799Z,1.60
2023-06-09T11:07:30.751Z,2.15
2023-06-09T11:10:03.502Z,1.85
2023-06-09T11:15:11.729Z,2.10
2023-06-09T11:17:46.932Z,2.28
2023-06-09T11:20:22.743Z,2.10
2023-06-09T11:22:55.391Z,2.60
2023-06-09T11:25:30.171Z,1.92
2023-06-09T11:28:02.729Z,1.73
2023-06-09T11:30:37.144Z,2.47
2023-06-09T11:33:11.773Z,1.70
2023-06-09T11:35:49.476Z,2.25
2023-06-09T11:38:26.656Z,1.92
2023-06-09T11:40:59.019Z,1.95
2023-06-09T11:43:31.737Z,1.60
2023-06-09T11:46:10.448Z,2.40
2023-06-09T11:48:39.477Z,2.17
2023-06-09T11:51:08.909Z,2.33
2023-06-09T11:53:40.856Z,1.95
2023-06-09T11:56:13.261Z,1.98
2023-06-09T11:58:43.811Z,2.30
2023-06-09T12:01:15.453Z,2.05
2023-06-09T12:03:48.843Z,1.63
2023-06-09T12:06:24.267Z,2.08
2023-06-09T12:08:53.350Z,1.83
2023-06-09T12:11:24.279Z,2.25
2023-06-09T12:13:55.286Z,2.10
2023-06-09T12:16:26.532Z,1.80
2023-06-09T12:19:11.873Z,2.00
2023-06-09T12:21:55.483Z,1.80
2023-06-09T12:24:25.319Z,2.05
2023-06-09T12:26:55.519Z,2.33
2023-06-09T12:29:30.523Z,2.08
2023-06-09T12:31:59.229Z,1.70
2023-06-09T12:34:38.341Z,1.83
2023-06-09T12:37:09.522Z,1.63
2023-06-09T12:39:41.021Z,1.90
2023-06-09T12:42:20.375Z,1.85
2023-06-09T12:45:03.397Z,2.10
2023-06-09T12:47:39.502Z,1.67
2023-06-09T12:50:16.147Z,2.00
2023-06-09T12:52:53.102Z,1.65
2023-06-09T12:55:25.061Z,1.50
2023-06-09T12:57:53.081Z,1.33
2023-06-09T13:00:24.653Z,1.65
2023-06-09T13:02:58.622Z,1.63
2023-06-09T13:05:37.353Z,1.63
2023-06-09T13:08:08.227Z,1.63
2023-06-09T13:10:36.993Z,1.98
2023-06-09T13:13:06.966Z,1.25
2023-06-09T13:15:34.937Z,1.50
2023-06-09T13:18:04.971Z,1.73
2023-06-09T13:20:34.901Z,1.20
2023-06-09T13:23:05.457Z,1.92
2023-06-09T13:25:36.550Z,1.90
2023-06-09T13:28:09.077Z,1.42
2023-06-09T13:30:40.396Z,1.40
2023-06-09T13:33:12.611Z,1.60
2023-06-09T13:35:46.000Z,1.63
2023-06-09T13:38:23.154Z,1.45
2023-06-09T13:41:01.020Z,1.60
2023-06-09T13:43:37.118Z,1.42
2023-06-09T13:46:17.494Z,1.45
2023-06-09T13:48:48.260Z,1.60
2023-06-09T13:51:19.220Z,1.38
2023-06-09T13:53:50.013Z,1.50
2023-06-09T13:56:21.631Z,1.13
2023-06-09T13:58:51.958Z,1.60
2023-06-09T14:01:27.915Z,1.52
2023-06-09T14:03:59.187Z,1.30
2023-06-09T14:06:30.977Z,1.27
2023-06-09T14:09:02.944Z,1.38
2023-06-09T14:11:31.676Z,1.27
2023-06-09T14:13:58.922Z,1.42
2023-06-09T14:16:26.130Z,1.30
2023-06-09T14:18:54.807Z,1.40
2023-06-09T14:21:23.439Z,1.50
2023-06-09T14:23:50.796Z,1.58
2023-06-09T14:26:18.147Z,1.30
2023-06-09T14:28:45.421Z,1.35
2023-06-09T14:31:12.652Z,1.50
2023-06-09T14:33:39.872Z,1.33
2023-06-09T14:36:07.553Z,1.67
2023-06-09T14:38:34.809Z,1.55
2023-06-09T14:41:02.037Z,1.50
2023-06-09T14:43:29.386Z,1.67
2023-06-09T14:45:56.641Z,1.88
2023-06-09T14:48:23.840Z,1.45
2023-06-09T14:50:51.091Z,1.73
2023-06-09T14:53:18.852Z,2.05
2023-06-09T14:55:48.566Z,2.22
2023-06-09T14:58:17.848Z,1.77
2023-06-09T15:00:46.136Z,1.65
2023-06-09T15:03:18.180Z,2.90
2023-06-09T15:05:46.294Z,1.83
2023-06-09T15:08:14.182Z,2.22
2023-06-09T15:10:43.575Z,2.05
2023-06-09T15:13:12.218Z,2.03
2023-06-09T15:15:39.501Z,2.10
2023-06-09T15:18:10.113Z,3.00
2023-06-09T15:20:38.907Z,2.95
2023-06-09T15:23:07.810Z,1.98
2023-06-09T15:25:38.227Z,2.17
2023-06-09T15:28:13.849Z,1.77
2023-06-09T15:30:46.618Z,1.85
2023-06-09T15:33:15.516Z,1.70
2023-06-09T15:35:45.071Z,1.95
2023-06-09T15:38:14.639Z,1.95
2023-06-09T15:40:46.656Z,1.80
2023-06-09T15:43:16.063Z,2.20
2023-06-09T15:45:53.562Z,1.95
2023-06-09T15:48:22.307Z,1.75
2023-06-09T15:50:50.754Z,1.77
2023-06-09T15:53:21.778Z,2.15
2023-06-09T15:55:51.078Z,1.85
2023-06-09T15:58:18.865Z,1.60
2023-06-09T16:00:47.045Z,1.63
2023-06-09T16:03:14.524Z,2.30
2023-06-09T16:05:43.445Z,2.10
2023-06-09T16:08:14.985Z,1.90
2023-06-09T16:10:44.784Z,2.03
2023-06-09T16:13:12.064Z,2.20
2023-06-09T16:15:41.452Z,1.60
2023-06-09T16:18:13.635Z,2.10
2023-06-09T16:20:44.044Z,1.25
2023-06-09T16:23:12.814Z,1.70
2023-06-09T16:25:40.242Z,1.65
2023-06-09T16:28:10.964Z,2.72
2023-06-09T16:30:40.030Z,2.58
2023-06-09T16:33:09.628Z,2.85
2023-06-09T16:35:37.978Z,2.20
2023-06-09T16:38:06.029Z,2.25
2023-06-09T16:40:33.897Z,2.30
2023-06-09T16:43:01.225Z,2.42
2023-06-09T16:45:29.903Z,1.63
2023-06-09T16:47:58.419Z,1.75
2023-06-09T16:50:26.116Z,2.58
2023-06-09T16:52:55.665Z,2.45
2023-06-09T16:55:23.275Z,2.08
2023-06-09T16:57:50.535Z,2.42
2023-06-09T17:00:18.932Z,2.28
2023-06-09T17:02:46.439Z,2.25
2023-06-09T17:05:16.729Z,2.42
2023-06-09T17:07:43.908Z,2.67
2023-06-09T17:10:11.814Z,2.50
2023-06-09T17:12:39.076Z,2.58
2023-06-09T17:15:06.923Z,2.70
2023-06-09T17:17:34.382Z,3.33
2023-06-09T17:20:01.821Z,2.63
2023-06-09T17:22:28.992Z,2.28
2023-06-09T17:24:56.201Z,2.88
2023-06-09T17:27:23.565Z,2.83
2023-06-09T17:29:50.930Z,2.10
2023-06-09T17:32:18.232Z,3.53
2023-06-09T17:34:45.553Z,2.92
2023-06-09T17:37:12.750Z,2.90
2023-06-09T17:39:39.967Z,2.78
2023-06-09T17:42:07.515Z,2.35
2023-06-09T17:44:35.555Z,3.10
2023-06-09T17:47:02.933Z,2.75
2023-06-09T17:49:30.164Z,2.33
2023-06-09T17:51:57.419Z,3.17
2023-06-09T17:54:26.677Z,3.35
2023-06-09T17:56:54.541Z,2.88
2023-06-09T17:59:21.775Z,2.33
2023-06-09T18:01:49.517Z,3.30
2023-06-09T18:04:17.338Z,3.33
2023-06-09T18:06:48.046Z,2.85
2023-06-09T18:09:17.184Z,2.85
2023-06-09T18:11:44.567Z,3.42
2023-06-09T18:14:11.796Z,3.10
2023-06-09T18:16:39.156Z,3.67
2023-06-09T18:19:06.592Z,3.42
2023-06-09T18:21:33.857Z,3.38
2023-06-09T18:24:03.132Z,3.25
2023-06-09T18:26:30.352Z,3.05
2023-06-09T18:28:57.704Z,3.33
2023-06-09T18:31:25.306Z,3.20
2023-06-09T18:33:55.503Z,3.15
2023-06-09T18:36:22.677Z,2.80
2023-06-09T18:38:50.079Z,2.90
2023-06-09T18:41:17.550Z,2.72
2023-06-09T18:43:45.670Z,3.08
2023-06-09T18:46:13.527Z,2.90
2023-06-09T18:48:55.763Z,3.20
2023-06-09T18:51:27.637Z,3.47
2023-06-09T18:53:55.114Z,2.90
2023-06-09T18:56:22.603Z,2.95
2023-06-09T18:58:49.812Z,3.33
2023-06-09T19:01:17.294Z,3.20
2023-06-09T19:03:44.599Z,3.35
2023-06-09T19:06:12.073Z,3.30
2023-06-09T19:08:39.411Z,3.13
2023-06-09T19:11:06.850Z,3.42
2023-06-09T19:13:34.228Z,3.33
2023-06-09T19:16:01.423Z,3.45
2023-06-09T19:18:28.674Z,3.10
2023-06-09T19:20:57.366Z,2.70
2023-06-09T19:23:24.711Z,2.72
2023-06-09T19:25:52.293Z,3.22
2023-06-09T19:28:19.577Z,3.30
2023-06-09T19:30:47.328Z,3.92
2023-06-09T19:33:14.592Z,3.58
2023-06-09T19:35:41.926Z,3.75
2023-06-09T19:38:09.185Z,3.38
2023-06-09T19:40:37.379Z,3.20
2023-06-09T19:43:04.685Z,3.42
2023-06-09T19:45:31.933Z,3.63
2023-06-09T19:47:59.242Z,3.60
2023-06-09T19:50:26.581Z,3.40
2023-06-09T19:52:53.809Z,3.50
2023-06-09T19:55:21.318Z,3.78
2023-06-09T19:57:48.695Z,3.45
2023-06-09T20:00:19.635Z,3.65
2023-06-09T20:02:46.863Z,3.47
2023-06-09T20:05:14.842Z,3.55
2023-06-09T20:07:42.822Z,3.78
2023-06-09T20:10:10.389Z,3.70
2023-06-09T20:12:37.985Z,3.80
2023-06-09T20:15:05.676Z,3.70
2023-06-09T20:17:33.278Z,4.03
2023-06-09T20:20:00.597Z,3.80
2023-06-09T20:22:28.520Z,3.80
2023-06-09T20:24:56.142Z,3.65
2023-06-09T20:27:23.422Z,3.53
2023-06-09T20:29:50.702Z,3.22
2023-06-09T20:32:18.203Z,4.15
2023-06-09T20:34:45.769Z,3.35
2023-06-09T20:37:13.061Z,3.90
2023-06-09T20:39:42.328Z,3.83
2023-06-09T20:42:09.727Z,3.92
2023-06-09T20:44:37.510Z,3.92
2023-06-09T20:47:05.433Z,4.03
2023-06-09T20:49:32.592Z,4.22
2023-06-09T20:51:59.879Z,4.53
2023-06-09T20:54:27.467Z,4.50
2023-06-09T20:56:54.635Z,3.85
2023-06-09T20:59:21.915Z,3.85
2023-06-09T21:01:49.439Z,3.90
2023-06-09T21:04:17.193Z,3.92
2023-06-09T21:06:44.456Z,4.45
2023-06-09T21:09:12.101Z,4.10
2023-06-09T21:11:39.426Z,4.47
2023-06-09T21:14:06.727Z,4.80
2023-06-09T21:16:33.953Z,4.35
2023-06-09T21:19:01.394Z,5.07
2023-06-09T21:21:28.599Z,5.63
2023-06-09T21:23:55.940Z,5.45
2023-06-09T21:26:26.183Z,6.38
2023-06-09T21:29:12.072Z,5.82
2023-06-09T21:31:39.402Z,7.22
2023-06-09T21:34:06.655Z,7.38
2023-06-09T21:36:33.918Z,7.32
2023-06-09T21:39:01.218Z,8.80
2023-06-09T21:41:29.360Z,6.28
2023-06-09T21:43:56.748Z,7.45
2023-06-09T21:46:24.180Z,7.32
2023-06-09T21:48:51.429Z,7.18
2023-06-09T21:51:18.595Z,7.40
2023-06-09T21:53:45.899Z,7.07
2023-06-09T21:56:13.266Z,8.02
2023-06-09T21:58:40.418Z,7.63
2023-06-09T22:01:07.725Z,7.22
2023-06-09T22:03:35.007Z,6.75
2023-06-09T22:06:07.922Z,8.48
2023-06-09T22:08:37.418Z,7.75
2023-06-09T22:11:06.365Z,7.38
2023-06-09T22:13:33.919Z,7.20
2023-06-09T22:16:03.208Z,7.20
2023-06-09T22:18:30.447Z,6.65
2023-06-09T22:20:57.887Z,6.65
2023-06-09T22:23:25.095Z,6.50
2023-06-09T22:25:52.302Z,6.22
2023-06-09T22:28:19.517Z,5.75
2023-06-09T22:30:48.497Z,6.32
2023-06-09T22:33:15.943Z,6.95
2023-06-09T22:35:43.505Z,8.77
2023-06-09T22:38:10.769Z,7.82
2023-06-09T22:40:38.052Z,7.47
2023-06-09T22:45:46.448Z,7.53
2023-06-09T22:48:13.613Z,6.60
2023-06-09T22:50:41.070Z,6.75
2023-06-09T22:53:08.560Z,7.75
2023-06-09T22:55:36.168Z,7.20
2023-06-09T22:58:03.410Z,6.82
2023-06-09T23:00:30.813Z,7.65
2023-06-09T23:02:58.003Z,7.78
2023-06-09T23:05:29.386Z,8.20
2023-06-09T23:07:58.136Z,8.23
2023-06-09T23:10:26.153Z,8.40
2023-06-09T23:12:53.310Z,8.05
2023-06-09T23:15:20.527Z,8.75
2023-06-09T23:17:48.216Z,8.60
2023-06-09T23:20:15.760Z,8.38
2023-06-09T23:22:44.361Z,9.90
2023-06-09T23:25:13.423Z,7.88
2023-06-09T23:27:41.446Z,7.63
2023-06-09T23:30:10.702Z,8.18
2023-06-09T23:32:42.953Z,7.65
2023-06-09T23:35:10.928Z,8.02
2023-06-09T23:37:39.864Z,7.55
2023-06-09T23:40:10.719Z,7.20
2023-06-09T23:42:41.856Z,6.18
2023-06-09T23:45:09.964Z,6.93
2023-06-09T23:47:37.809Z,8.25
2023-06-09T23:50:06.317Z,8.18
2023-06-09T23:52:34.178Z,8.05
2023-06-09T23:55:04.867Z,8.13
2023-06-09T23:57:32.127Z,7.53
2023-06-09T23:59:59.332Z,7.85
